Time,TemperatureF,DewpointF,PressureIn,WindDirection,WindDirectionDegrees,WindSpeedMPH,WindSpeedGustMPH,Humidity,HourlyPrecipIn,Conditions,Clouds,dailyrainin,SoftwareType,DateUTC
2013-02-08 00:00:00,54.6,52.0,29.80,NE,49,29.0,30.0,91,0.18,,,1.20,Wunderground v.1.15,2013-02-08 05:00:00,
2013-02-08 00:10:00,55.3,52.7,29.80,ENE,71,24.0,25.0,91,0.14,,,0.04,Wunderground v.1.15,2013-02-08 05:10:00,
2013-02-08 00:20:00,55.7,53.1,29.81,ENE,63,16.0,18.0,91,0.61,,,0.14,Wunderground v.1.15,2013-02-08 05:20:00,
2013-02-08 00:30:00,56.0,53.4,29.78,East,80,17.0,18.0,91,0.18,,,0.19,Wunderground v.1.15,2013-02-08 05:30:00,
2013-02-08 00:40:00,56.4,53.8,29.78,ENE,78,13.0,13.0,91,0.19,,,0.23,Wunderground v.1.15,2013-02-08 05:40:00,
2013-02-08 00:50:00,56.1,53.5,29.77,NE,40,14.0,14.0,91,0.14,,,0.25,Wunderground v.1.15,2013-02-08 05:50:00,
2013-02-08 01:00:00,55.8,53.2,29.75,NE,54,15.0,15.0,91,0.24,,,0.28,Wunderground v.1.15,2013-02-08 06:00:00,
2013-02-08 01:10:00,55.8,53.2,29.75,ENE,59,20.0,26.0,91,0.31,,,0.36,Wunderground v.1.15,2013-02-08 06:10:00,
2013-02-08 01:20:00,56.5,53.9,29.72,SE,127,18.0,18.0,91,0.11,,,0.39,Wunderground v.1.15,2013-02-08 06:20:00,
2013-02-08 01:30:00,59.0,56.4,29.71,ESE,104,5.0,5.0,91,0.07,,,0.40,Wunderground v.1.15,2013-02-08 06:30:00,
2013-02-08 01:40:00,59.5,57.2,29.71,ESE,117,5.0,10.0,92,0.10,,,0.41,Wunderground v.1.15,2013-02-08 06:40:00,
2013-02-08 01:50:00,59.4,57.1,29.71,SSE,156,5.0,5.0,92,0.24,,,0.45,Wunderground v.1.15,2013-02-08 06:50:00,
2013-02-08 02:00:00,59.5,57.2,29.69,SE,144,4.0,4.0,92,0.30,,,0.50,Wunderground v.1.15,2013-02-08 07:00:00,
2013-02-08 02:10:00,59.9,57.6,29.69,SE,136,5.0,5.0,92,0.30,,,0.55,Wunderground v.1.15,2013-02-08 07:10:00,
2013-02-08 02:20:00,59.8,57.5,29.67,ESE,110,5.0,8.0,92,0.29,,,0.60,Wunderground v.1.15,2013-02-08 07:20:00,
2013-02-08 02:30:00,59.1,56.8,29.64,SE,136,4.0,4.0,92,0.28,,,0.65,Wunderground v.1.15,2013-02-08 07:30:00,
2013-02-08 02:40:00,58.8,56.2,29.64,ESE,116,4.0,4.0,91,0.25,,,0.70,Wunderground v.1.15,2013-02-08 07:40:00,
2013-02-08 02:50:00,58.7,56.1,29.63,ESE,110,3.0,3.0,91,0.14,,,0.73,Wunderground v.1.15,2013-02-08 07:50:00,
2013-02-08 03:00:00,58.8,56.2,29.62,ESE,111,3.0,3.0,91,0.52,,,0.79,Wunderground v.1.15,2013-02-08 08:00:00,
2013-02-08 03:10:00,59.1,56.8,29.62,East,86,2.0,5.0,92,0.26,,,0.84,Wunderground v.1.15,2013-02-08 08:10:00,
2013-02-08 03:20:00,58.4,55.8,29.60,ENE,61,3.0,5.0,91,0.57,,,0.89,Wunderground v.1.15,2013-02-08 08:20:00,
2013-02-08 03:30:00,58.5,55.9,29.57,NE,44,5.0,6.0,91,0.37,,,0.95,Wunderground v.1.15,2013-02-08 08:30:00,
2013-02-08 03:40:00,58.2,55.6,29.57,ENE,58,5.0,5.0,91,1.01,,,1.02,Wunderground v.1.15,2013-02-08 08:40:00,
2013-02-08 03:50:00,57.9,55.3,29.54,East,80,4.0,4.0,91,0.15,,,1.07,Wunderground v.1.15,2013-02-08 08:50:00,
2013-02-08 04:00:00,58.1,55.8,29.54,SSE,148,0.0,0.0,92,0.04,,,1.07,Wunderground v.1.15,2013-02-08 09:00:00,
2013-02-08 04:10:00,59.3,57.0,29.54,SE,135,0.0,0.0,92,0.04,,,1.08,Wunderground v.1.15,2013-02-08 09:10:00,
2013-02-08 04:20:00,58.3,56.0,29.51,SE,135,0.0,0.0,92,0.00,,,1.08,Wunderground v.1.15,2013-02-08 09:20:00,
2013-02-08 04:30:00,57.1,54.8,29.50,SE,129,0.0,1.0,92,0.00,,,1.09,Wunderground v.1.15,2013-02-08 09:30:00,
2013-02-08 04:40:00,57.0,54.7,29.50,ENE,78,1.0,1.0,92,0.00,,,1.09,Wunderground v.1.15,2013-02-08 09:40:00,
2013-02-08 04:50:00,58.1,55.8,29.47,SSE,150,0.0,2.0,92,0.00,,,1.09,Wunderground v.1.15,2013-02-08 09:50:00,
2013-02-08 05:00:00,58.3,56.0,29.47,South,178,4.0,4.0,92,0.00,,,1.09,Wunderground v.1.15,2013-02-08 10:00:00,
2013-02-08 05:10:00,58.4,56.1,29.47,SSE,153,5.0,6.0,92,0.00,,,1.09,Wunderground v.1.15,2013-02-08 10:10:00,
2013-02-08 05:20:00,58.5,56.2,29.45,South,180,7.0,7.0,92,0.00,,,1.09,Wunderground v.1.15,2013-02-08 10:20:00,
2013-02-08 05:30:00,58.7,56.4,29.45,SSW,192,7.0,7.0,92,0.00,,,1.09,Wunderground v.1.15,2013-02-08 10:30:00,
2013-02-08 05:40:00,59.6,57.3,29.45,SSW,213,12.0,12.0,92,0.00,,,1.09,Wunderground v.1.15,2013-02-08 10:40:00,
2013-02-08 05:50:00,58.8,56.5,29.44,SW,226,8.0,8.0,92,0.00,,,1.09,Wunderground v.1.15,2013-02-08 10:50:00,
2013-02-08 06:00:00,59.8,57.8,29.43,SSW,202,5.0,5.0,93,0.00,,,1.09,Wunderground v.1.15,2013-02-08 11:00:00,
2013-02-08 06:10:00,59.6,57.3,29.43,South,187,5.0,6.0,92,0.00,,,1.09,Wunderground v.1.15,2013-02-08 11:10:00,
2013-02-08 06:20:00,59.0,56.7,29.43,SSW,203,3.0,3.0,92,0.00,,,1.09,Wunderground v.1.15,2013-02-08 11:20:00,
2013-02-08 06:30:00,58.6,56.3,29.43,SW,234,2.0,2.0,92,0.00,,,1.09,Wunderground v.1.15,2013-02-08 11:30:00,
2013-02-08 06:40:00,58.4,56.1,29.43,WSW,244,1.0,1.0,92,0.00,,,1.09,Wunderground v.1.15,2013-02-08 11:40:00,
2013-02-08 06:50:00,57.6,55.3,29.44,WNW,282,1.0,2.0,92,0.00,,,1.09,Wunderground v.1.15,2013-02-08 11:50:00,
2013-02-08 07:00:00,54.6,52.3,29.47,West,260,2.0,3.0,92,0.00,,,1.09,Wunderground v.1.15,2013-02-08 12:00:00,
2013-02-08 07:10:00,52.3,50.3,29.47,WSW,242,2.0,4.0,93,0.00,,,1.09,Wunderground v.1.15,2013-02-08 12:10:00,
2013-02-08 07:21:00,50.9,48.7,29.50,WSW,249,2.0,2.0,92,0.00,,,1.09,Wunderground v.1.15,2013-02-08 12:21:00,
2013-02-08 07:30:00,49.9,47.7,29.51,SW,222,2.0,2.0,92,0.00,,,1.09,Wunderground v.1.15,2013-02-08 12:30:00,
2013-02-08 07:40:00,49.3,47.1,29.51,WSW,253,2.0,2.0,92,0.00,,,1.09,Wunderground v.1.15,2013-02-08 12:40:00,
2013-02-08 07:50:00,48.6,46.4,29.53,WSW,256,2.0,2.0,92,0.00,,,1.09,Wunderground v.1.15,2013-02-08 12:50:00,
2013-02-08 08:00:00,48.1,45.9,29.55,WNW,292,2.0,2.0,92,0.00,,,1.09,Wunderground v.1.15,2013-02-08 13:00:00,
2013-02-08 08:10:00,47.7,45.5,29.55,WSW,248,2.0,2.0,92,0.00,,,1.09,Wunderground v.1.15,2013-02-08 13:10:00,
2013-02-08 08:20:00,47.4,45.2,29.56,WSW,258,3.0,3.0,92,0.00,,,1.09,Wunderground v.1.15,2013-02-08 13:20:00,
2013-02-08 08:30:00,47.2,45.0,29.58,SW,218,3.0,4.0,92,0.00,,,1.09,Wunderground v.1.15,2013-02-08 13:30:00,
2013-02-08 08:40:00,47.1,44.9,29.58,NW,314,3.0,5.0,92,0.00,,,1.09,Wunderground v.1.15,2013-02-08 13:40:00,
2013-02-08 08:50:00,47.1,44.9,29.59,NW,325,3.0,3.0,92,0.00,,,1.09,Wunderground v.1.15,2013-02-08 13:50:00,
2013-02-08 09:00:00,47.3,45.1,29.60,West,259,3.0,3.0,92,0.00,,,1.09,Wunderground v.1.15,2013-02-08 14:00:00,
2013-02-08 09:11:00,47.2,45.0,29.60,West,259,4.0,4.0,92,0.00,,,1.09,Wunderground v.1.15,2013-02-08 14:11:00,
2013-02-08 09:20:00,47.2,45.0,29.61,NW,317,4.0,4.0,92,0.00,,,1.09,Wunderground v.1.15,2013-02-08 14:20:00,
2013-02-08 09:30:00,47.2,45.0,29.63,West,279,3.0,3.0,92,0.00,,,1.09,Wunderground v.1.15,2013-02-08 14:30:00,
2013-02-08 09:40:00,47.2,45.0,29.63,NE,36,3.0,3.0,92,0.00,,,1.09,Wunderground v.1.15,2013-02-08 14:40:00,
2013-02-08 09:51:00,47.3,45.1,29.64,South,169,4.0,7.0,92,0.00,,,1.09,Wunderground v.1.15,2013-02-08 14:51:00,
2013-02-08 10:00:00,47.7,45.5,29.65,NNW,333,4.0,4.0,92,0.00,,,1.09,Wunderground v.1.15,2013-02-08 15:00:00,
2013-02-08 10:10:00,48.2,46.0,29.65,SW,218,4.0,4.0,92,0.00,,,1.09,Wunderground v.1.15,2013-02-08 15:10:00,
2013-02-08 10:21:00,49.4,47.2,29.67,WNW,285,3.0,3.0,92,0.00,,,1.09,Wunderground v.1.15,2013-02-08 15:21:00,
2013-02-08 10:30:00,50.2,48.0,29.68,NW,326,4.0,4.0,92,0.00,,,1.09,Wunderground v.1.15,2013-02-08 15:30:00,
2013-02-08 10:41:00,51.0,48.8,29.68,WNW,302,5.0,5.0,92,0.00,,,1.09,Wunderground v.1.15,2013-02-08 15:41:00,
2013-02-08 10:50:00,51.5,49.3,29.68,South,169,5.0,5.0,92,0.00,,,1.09,Wunderground v.1.15,2013-02-08 15:50:00,
2013-02-08 11:00:00,52.3,50.0,29.69,ESE,121,4.0,4.0,92,0.00,,,1.09,Wunderground v.1.15,2013-02-08 16:00:00,
2013-02-08 11:10:00,53.0,50.7,29.69,NW,319,2.0,4.0,92,0.00,,,1.09,Wunderground v.1.15,2013-02-08 16:10:00,
2013-02-08 11:21:00,53.4,51.1,29.69,NW,319,3.0,3.0,92,0.00,,,1.09,Wunderground v.1.15,2013-02-08 16:21:00,
2013-02-08 11:30:00,53.9,51.6,29.70,West,267,3.0,3.0,92,0.00,,,1.09,Wunderground v.1.15,2013-02-08 16:30:00,
2013-02-08 11:41:00,53.8,51.8,29.70,West,273,3.0,4.0,93,0.00,,,1.09,Wunderground v.1.15,2013-02-08 16:41:00,
2013-02-08 11:50:00,54.1,52.1,29.71,West,269,3.0,3.0,93,0.00,,,1.09,Wunderground v.1.15,2013-02-08 16:50:00,
2013-02-08 12:11:00,54.9,53.5,29.71,NW,316,2.0,2.0,95,0.00,,,1.09,Wunderground v.1.15,2013-02-08 17:11:00,
2013-02-08 12:20:00,54.8,53.4,29.73,West,264,2.0,2.0,95,0.00,,,1.09,Wunderground v.1.15,2013-02-08 17:20:00,
2013-02-08 12:30:00,54.0,52.0,29.73,South,171,3.0,3.0,93,0.00,,,1.09,Wunderground v.1.15,2013-02-08 17:30:00,
2013-02-08 12:40:00,53.5,51.2,29.73,NNW,336,3.0,3.0,92,0.00,,,1.09,Wunderground v.1.15,2013-02-08 17:40:00,
2013-02-08 12:51:00,53.2,50.9,29.73,WSW,248,3.0,3.0,92,0.00,,,1.09,Wunderground v.1.15,2013-02-08 17:51:00,
2013-02-08 13:00:00,52.9,50.6,29.74,NW,307,3.0,3.0,92,0.00,,,1.09,Wunderground v.1.15,2013-02-08 18:00:00,
2013-02-08 13:10:00,53.1,50.8,29.74,West,275,2.0,2.0,92,0.00,,,1.09,Wunderground v.1.15,2013-02-08 18:10:00,
2013-02-08 13:21:00,52.5,49.9,29.74,WSW,254,4.0,4.0,91,0.00,,,1.09,Wunderground v.1.15,2013-02-08 18:21:00,
2013-02-08 13:31:00,52.0,49.5,29.74,NW,316,3.0,5.0,91,0.00,,,1.09,Wunderground v.1.15,2013-02-08 18:31:00,
2013-02-08 13:41:00,51.5,49.0,29.74,West,264,4.0,4.0,91,0.00,,,1.09,Wunderground v.1.15,2013-02-08 18:41:00,
2013-02-08 13:50:00,51.4,49.4,29.73,SSW,192,3.0,3.0,93,0.00,,,1.09,Wunderground v.1.15,2013-02-08 18:50:00,
2013-02-08 14:01:00,50.9,48.7,29.74,WNW,290,3.0,3.0,92,0.00,,,1.09,Wunderground v.1.15,2013-02-08 19:01:00,
2013-02-08 14:11:00,50.5,48.6,29.74,WNW,286,3.0,3.0,93,0.00,,,1.09,Wunderground v.1.15,2013-02-08 19:11:00,
2013-02-08 14:21:00,50.6,48.4,29.76,West,274,2.0,4.0,92,0.00,,,1.09,Wunderground v.1.15,2013-02-08 19:21:00,
2013-02-08 14:30:00,50.2,48.0,29.76,NW,319,3.0,3.0,92,0.00,,,1.09,Wunderground v.1.15,2013-02-08 19:30:00,
2013-02-08 14:41:00,50.0,47.8,29.76,NNW,330,3.0,3.0,92,0.00,,,1.09,Wunderground v.1.15,2013-02-08 19:41:00,
2013-02-08 14:51:00,50.3,48.4,29.76,West,277,2.0,3.0,93,0.00,,,1.09,Wunderground v.1.15,2013-02-08 19:51:00,
2013-02-08 15:00:00,50.8,48.6,29.77,West,263,2.0,2.0,92,0.00,,,1.09,Wunderground v.1.15,2013-02-08 20:00:00,
2013-02-08 15:11:00,50.9,48.4,29.77,WSW,242,2.0,2.0,91,0.00,,,1.09,Wunderground v.1.15,2013-02-08 20:11:00,
2013-02-08 15:21:00,51.0,48.2,29.77,WSW,254,2.0,2.0,90,0.00,,,1.09,Wunderground v.1.15,2013-02-08 20:21:00,
2013-02-08 15:31:00,51.4,48.9,29.77,WSW,254,2.0,2.0,91,0.00,,,1.09,Wunderground v.1.15,2013-02-08 20:31:00,
2013-02-08 15:41:00,51.8,49.0,29.77,WSW,246,1.0,2.0,90,0.00,,,1.09,Wunderground v.1.15,2013-02-08 20:41:00,
2013-02-08 15:51:00,51.6,48.8,29.77,NNW,333,2.0,2.0,90,0.00,,,1.09,Wunderground v.1.15,2013-02-08 20:51:00,
2013-02-08 16:01:00,51.7,49.2,29.77,SW,218,1.0,2.0,91,0.00,,,1.09,Wunderground v.1.15,2013-02-08 21:01:00,
2013-02-08 16:10:00,52.1,49.6,29.77,West,275,1.0,2.0,91,0.00,,,1.09,Wunderground v.1.15,2013-02-08 21:10:00,
2013-02-08 16:21:00,52.4,49.3,29.78,WSW,254,1.0,1.0,89,0.00,,,1.09,Wunderground v.1.15,2013-02-08 21:21:00,
2013-02-08 16:30:00,52.4,49.3,29.78,West,271,1.0,1.0,89,0.00,,,1.09,Wunderground v.1.15,2013-02-08 21:30:00,
2013-02-08 16:41:00,52.4,49.6,29.78,West,272,1.0,1.0,90,0.00,,,1.09,Wunderground v.1.15,2013-02-08 21:41:00,
2013-02-08 16:51:00,52.0,48.9,29.78,West,277,1.0,2.0,89,0.00,,,1.09,Wunderground v.1.15,2013-02-08 21:51:00,
2013-02-08 17:01:00,51.7,48.6,29.79,South,178,2.0,2.0,89,0.00,,,1.09,Wunderground v.1.15,2013-02-08 22:01:00,
2013-02-08 17:11:00,51.4,48.3,29.79,WSW,242,1.0,2.0,89,0.00,,,1.09,Wunderground v.1.15,2013-02-08 22:11:00,
2013-02-08 17:21:00,51.0,48.2,29.80,WSW,248,1.0,1.0,90,0.00,,,1.09,Wunderground v.1.15,2013-02-08 22:21:00,
2013-02-08 17:31:00,50.5,47.7,29.80,WSW,244,1.0,1.0,90,0.00,,,1.09,Wunderground v.1.15,2013-02-08 22:31:00,
2013-02-08 17:41:00,50.2,47.4,29.80,SW,229,1.0,1.0,90,0.00,,,1.09,Wunderground v.1.15,2013-02-08 22:41:00,
2013-02-08 17:51:00,50.0,47.5,29.81,West,261,0.0,0.0,91,0.00,,,1.09,Wunderground v.1.15,2013-02-08 22:51:00,
2013-02-08 18:01:00,49.8,47.3,29.82,West,263,0.0,0.0,91,0.00,,,1.09,Wunderground v.1.15,2013-02-08 23:01:00,
2013-02-08 18:11:00,49.6,47.1,29.82,WSW,257,0.0,0.0,91,0.00,,,1.09,Wunderground v.1.15,2013-02-08 23:11:00,
2013-02-08 18:21:00,49.5,47.0,29.82,WSW,255,0.0,4.0,91,0.00,,,1.09,Wunderground v.1.15,2013-02-08 23:21:00,
2013-02-08 18:30:00,49.5,47.3,29.83,SW,230,1.0,1.0,92,0.00,,,1.09,Wunderground v.1.15,2013-02-08 23:30:00,
2013-02-08 18:41:00,49.5,47.3,29.83,WSW,248,1.0,1.0,92,0.00,,,1.09,Wunderground v.1.15,2013-02-08 23:41:00,
2013-02-08 18:51:00,49.5,47.3,29.83,WSW,254,1.0,1.0,92,0.00,,,1.09,Wunderground v.1.15,2013-02-08 23:51:00,
2013-02-08 19:01:00,49.7,47.2,29.84,WSW,248,1.0,2.0,91,0.00,,,1.09,Wunderground v.1.15,2013-02-09 00:01:00,
2013-02-08 19:10:00,49.7,47.2,29.84,WSW,253,1.0,1.0,91,0.00,,,1.09,Wunderground v.1.15,2013-02-09 00:10:00,
2013-02-08 19:21:00,49.7,47.2,29.84,WSW,250,1.0,1.0,91,0.00,,,1.09,Wunderground v.1.15,2013-02-09 00:21:00,
2013-02-08 19:31:00,49.9,47.4,29.84,WSW,252,1.0,1.0,91,0.00,,,1.09,Wunderground v.1.15,2013-02-09 00:31:00,
2013-02-08 19:41:00,49.9,47.4,29.84,West,262,1.0,1.0,91,0.00,,,1.09,Wunderground v.1.15,2013-02-09 00:41:00,
2013-02-08 19:51:00,50.0,47.5,29.85,WSW,256,1.0,1.0,91,0.00,,,1.09,Wunderground v.1.15,2013-02-09 00:51:00,
2013-02-08 20:01:00,50.1,47.6,29.85,West,267,1.0,1.0,91,0.00,,,1.09,Wunderground v.1.15,2013-02-09 01:01:00,
2013-02-08 20:11:00,50.3,47.8,29.85,SSW,209,1.0,1.0,91,0.00,,,1.09,Wunderground v.1.15,2013-02-09 01:11:00,
2013-02-08 20:21:00,50.4,47.9,29.85,SSW,200,1.0,1.0,91,0.00,,,1.09,Wunderground v.1.15,2013-02-09 01:21:00,
2013-02-08 20:31:00,50.3,47.8,29.86,West,259,0.0,0.0,91,0.00,,,1.09,Wunderground v.1.15,2013-02-09 01:31:00,
2013-02-08 20:41:00,50.2,47.7,29.86,WSW,252,0.0,0.0,91,0.00,,,1.09,Wunderground v.1.15,2013-02-09 01:41:00,
2013-02-08 20:51:00,50.1,47.6,29.87,SSW,211,0.0,0.0,91,0.00,,,1.09,Wunderground v.1.15,2013-02-09 01:51:00,
2013-02-08 21:01:00,50.1,47.6,29.87,West,261,0.0,0.0,91,0.00,,,1.09,Wunderground v.1.15,2013-02-09 02:01:00,
2013-02-08 21:11:00,50.1,47.9,29.87,West,261,0.0,0.0,92,0.00,,,1.09,Wunderground v.1.15,2013-02-09 02:11:00,
2013-02-08 21:21:00,50.3,47.8,29.87,West,263,1.0,1.0,91,0.00,,,1.09,Wunderground v.1.15,2013-02-09 02:21:00,
2013-02-08 21:31:00,50.4,47.9,29.88,WSW,250,1.0,1.0,91,0.00,,,1.09,Wunderground v.1.15,2013-02-09 02:31:00,
2013-02-08 21:41:00,50.3,47.8,29.88,WSW,256,1.0,1.0,91,0.00,,,1.09,Wunderground v.1.15,2013-02-09 02:41:00,
2013-02-08 21:51:00,50.1,47.6,29.88,WSW,254,1.0,1.0,91,0.00,,,1.09,Wunderground v.1.15,2013-02-09 02:51:00,
2013-02-08 22:01:00,50.0,47.5,29.88,West,267,1.0,1.0,91,0.00,,,1.09,Wunderground v.1.15,2013-02-09 03:01:00,
2013-02-08 22:11:00,49.7,47.5,29.88,West,263,1.0,1.0,92,0.00,,,1.09,Wunderground v.1.15,2013-02-09 03:11:00,
2013-02-08 22:21:00,49.5,47.3,29.88,WSW,246,0.0,0.0,92,0.00,,,1.09,Wunderground v.1.15,2013-02-09 03:21:00,
2013-02-08 22:31:00,49.4,47.2,29.88,WSW,248,0.0,0.0,92,0.00,,,1.09,Wunderground v.1.15,2013-02-09 03:31:00,
2013-02-08 22:41:00,49.4,47.2,29.88,SSW,200,1.0,1.0,92,0.00,,,1.09,Wunderground v.1.15,2013-02-09 03:41:00,
2013-02-08 22:51:00,49.4,46.9,29.90,WSW,245,1.0,1.0,91,0.00,,,1.09,Wunderground v.1.15,2013-02-09 03:51:00,
2013-02-08 23:01:00,49.1,46.6,29.90,NW,306,1.0,1.0,91,0.00,,,1.09,Wunderground v.1.15,2013-02-09 04:01:00,
2013-02-08 23:11:00,48.7,46.2,29.90,SW,223,1.0,2.0,91,0.00,,,1.09,Wunderground v.1.15,2013-02-09 04:11:00,
2013-02-08 23:21:00,48.5,46.3,29.91,WNW,295,1.0,1.0,92,0.00,,,1.09,Wunderground v.1.15,2013-02-09 04:21:00,
2013-02-08 23:31:00,48.1,45.6,29.92,NNW,331,1.0,4.0,91,0.00,,,1.09,Wunderground v.1.15,2013-02-09 04:31:00,
2013-02-08 23:41:00,47.4,41.9,29.92,WNW,294,3.0,3.0,81,0.00,,,1.09,Wunderground v.1.15,2013-02-09 04:41:00,
2013-02-08 23:51:00,46.7,39.5,29.93,West,272,3.0,3.0,76,0.00,,,1.09,Wunderground v.1.15,2013-02-09 04:51:00,